Time;durP1;ratioP1;P1;durP2;ratioP2;P2;SDS_P1;SDS_P2;PMS_P1;PMS_P2;Temp;Humidity;BMP_temperature;BMP_pressure;BME280_temperature;BME280_humidity;BME280_pressure;Samples;Min_cycle;Max_cycle;Signal;HPM_P1;HPM_P2
2023/08/23 00:00:29;;;;;;;8.40;4.80;;;;;;;16.89;64.26;99555.02;107267;1255;73853;-40
2023/08/23 00:02:57;;;;;;;9.90;4.80;;;;;;;16.80;64.42;99555.13;107201;1254;67599;-40
2023/08/23 00:05:25;;;;;;;7.70;4.70;;;;;;;16.72;64.31;99554.45;108828;1255;72686;-40
2023/08/23 00:07:53;;;;;;;7.00;3.90;;;;;;;16.70;64.36;99560.87;107279;1256;60656;-40
2023/08/23 00:10:20;;;;;;;8.80;4.60;;;;;;;16.69;64.36;99566.83;107294;1254;60397;-40
2023/08/23 00:12:53;;;;;;;12.70;5.00;;;;;;;16.66;64.66;99570.59;107330;1254;73813;-40
2023/08/23 00:15:20;;;;;;;7.60;4.20;;;;;;;16.64;64.56;99564.19;107322;1260;67933;-40
2023/08/23 00:17:48;;;;;;;6.90;3.90;;;;;;;16.63;64.49;99558.70;107307;1254;72674;-40
2023/08/23 00:20:16;;;;;;;8.50;4.40;;;;;;;16.66;64.42;99563.94;107376;1254;60337;-40
2023/08/23 00:22:46;;;;;;;7.70;4.40;;;;;;;16.72;64.59;99565.34;107316;1260;60481;-40
2023/08/23 00:25:13;;;;;;;8.00;4.70;;;;;;;16.75;64.59;99559.06;107381;1255;73887;-40
2023/08/23 00:27:41;;;;;;;8.60;4.50;;;;;;;16.79;64.67;99556.01;107311;1254;67733;-40
2023/08/23 00:30:09;;;;;;;7.00;4.10;;;;;;;16.81;64.57;99547.77;107317;1255;72475;-40
2023/08/23 00:32:37;;;;;;;7.30;4.20;;;;;;;16.84;64.76;99551.69;107304;1260;60534;-40
2023/08/23 00:35:06;;;;;;;5.50;3.50;;;;;;;16.92;64.89;99550.16;107256;1253;59585;-40
2023/08/23 00:37:33;;;;;;;7.80;4.40;;;;;;;17.00;64.56;99546.46;107276;1254;73770;-40
2023/08/23 00:40:01;;;;;;;9.80;4.40;;;;;;;16.99;64.12;99547.95;107421;1253;66636;-40
2023/08/23 00:42:31;;;;;;;7.00;4.00;;;;;;;16.98;64.25;99549.76;107414;1254;72748;-40
2023/08/23 00:44:59;;;;;;;5.80;3.80;;;;;;;16.99;64.34;99548.50;107183;1258;60364;-40
2023/08/23 00:47:26;;;;;;;7.00;4.00;;;;;;;17.00;64.57;99532.67;107355;1254;59995;-40
2023/08/23 00:49:57;;;;;;;6.90;4.10;;;;;;;17.01;64.62;99522.59;107458;1253;73846;-40
2023/08/23 00:52:24;;;;;;;7.30;4.20;;;;;;;17.02;64.52;99519.06;107291;1253;67562;-39
2023/08/23 00:54:57;;;;;;;7.10;3.80;;;;;;;17.00;64.35;99517.52;107183;1256;72740;-40
2023/08/23 00:57:25;;;;;;;6.00;3.70;;;;;;;16.95;64.02;99520.65;107113;1261;60441;-40
2023/08/23 00:59:52;;;;;;;6.90;3.90;;;;;;;16.90;64.00;99525.52;107101;1254;131131;-40
2023/08/23 01:04:54;;;;;;;5.20;3.60;;;;;;;16.90;64.23;99523.03;104244;1291;600228;-38
2023/08/23 01:07:32;;;;;;;8.30;3.70;;;;;;;16.93;64.28;99522.16;106605;1267;60045;-39
2023/08/23 01:10:10;;;;;;;7.10;3.40;;;;;;;16.99;64.52;99520.02;106622;1267;59248;-39
2023/08/23 01:13:04;;;;;;;5.30;3.20;;;;;;;17.02;65.08;99526.18;106613;1267;72224;-39
2023/08/23 01:15:31;;;;;;;6.00;3.70;;;;;;;17.06;65.82;99537.52;106564;1266;66452;-39
2023/08/23 01:17:59;;;;;;;5.70;3.80;;;;;;;17.05;66.73;99539.31;106394;1267;138270;-39
2023/08/23 01:20:27;;;;;;;6.40;3.40;;;;;;;17.06;66.93;99537.42;107372;1254;61924;-39
2023/08/23 01:23:11;;;;;;;5.90;3.10;;;;;;;17.10;66.65;99531.55;107307;1253;59997;-39
2023/08/23 01:25:44;;;;;;;5.60;3.20;;;;;;;17.18;66.36;99529.54;107631;1252;71028;-39
2023/08/23 01:28:11;;;;;;;5.90;3.30;;;;;;;17.23;66.17;99533.67;107551;1253;67083;-39
2023/08/23 01:30:39;;;;;;;7.70;3.40;;;;;;;17.25;66.01;99532.08;107438;1254;72663;-40
2023/08/23 01:33:23;;;;;;;4.60;3.50;;;;;;;17.29;66.01;99531.21;107519;1254;59634;-39
2023/08/23 01:35:57;;;;;;;6.30;3.20;;;;;;;17.32;66.04;99525.09;107509;1253;60029;-39
2023/08/23 01:38:25;;;;;;;6.40;3.40;;;;;;;17.34;66.14;99519.75;107520;1254;71851;-40
2023/08/23 01:40:53;;;;;;;5.80;3.60;;;;;;;17.35;65.92;99516.53;107535;1254;66425;-39
2023/08/23 01:43:21;;;;;;;5.30;3.30;;;;;;;17.35;65.63;99517.16;107502;1253;71426;-38
2023/08/23 01:45:49;;;;;;;6.70;3.40;;;;;;;17.35;65.40;99513.87;107516;1257;60102;-39
2023/08/23 01:48:16;;;;;;;6.00;3.20;;;;;;;17.35;65.47;99522.25;107429;1254;61009;-39
2023/08/23 01:50:44;;;;;;;6.50;3.00;;;;;;;17.37;65.41;99518.40;107349;1253;70797;-39
2023/08/23 01:53:12;;;;;;;5.80;2.90;;;;;;;17.42;64.99;99521.43;107406;1253;67560;-39
2023/08/23 01:55:40;;;;;;;6.30;3.20;;;;;;;17.37;63.81;99521.21;107247;1254;72675;-39
2023/08/23 01:58:07;;;;;;;5.80;3.30;;;;;;;17.25;63.94;99526.14;107180;1257;61058;-39
2023/08/23 02:00:35;;;;;;;5.60;3.10;;;;;;;17.13;64.08;99527.38;107370;1254;60087;-39
2023/08/23 02:03:03;;;;;;;5.00;3.40;;;;;;;17.04;64.39;99523.20;107454;1257;70905;-39
2023/08/23 02:05:31;;;;;;;5.60;3.10;;;;;;;17.01;64.89;99518.12;107301;1253;67675;-39
2023/08/23 02:07:59;;;;;;;6.00;3.30;;;;;;;17.04;64.99;99509.35;107506;1252;70498;-39
2023/08/23 02:10:26;;;;;;;4.70;3.30;;;;;;;17.08;64.82;99508.48;107343;1254;60059;-39
2023/08/23 02:12:55;;;;;;;6.40;3.70;;;;;;;17.10;64.82;99522.55;107555;1253;59709;-41
2023/08/23 02:15:22;;;;;;;5.70;3.30;;;;;;;17.11;65.41;99523.16;107343;1259;73034;-39
2023/08/23 02:17:52;;;;;;;6.00;3.10;;;;;;;17.14;65.95;99506.09;107324;1259;66472;-38
2023/08/23 02:20:20;;;;;;;5.30;2.70;;;;;;;17.19;65.46;99511.92;107334;1258;71470;-39
2023/08/23 02:22:50;;;;;;;4.40;2.70;;;;;;;17.20;64.81;99509.73;107190;1253;59687;-39
2023/08/23 02:25:18;;;;;;;4.40;2.70;;;;;;;17.16;64.72;99503.19;107429;1253;59593;-39
2023/08/23 02:27:46;;;;;;;4.30;2.90;;;;;;;17.22;64.35;99514.73;107463;1258;71784;-39
2023/08/23 02:30:14;;;;;;;5.80;3.50;;;;;;;17.21;64.01;99514.82;107447;1254;68346;-39
2023/08/23 02:32:41;;;;;;;5.70;3.00;;;;;;;17.20;64.06;99518.56;107326;1254;71417;-39
2023/08/23 02:35:09;;;;;;;5.10;3.20;;;;;;;17.16;63.89;99515.77;107543;1254;60105;-39
2023/08/23 02:37:38;;;;;;;6.60;3.20;;;;;;;17.09;63.95;99519.34;107360;1253;60182;-39
2023/08/23 02:40:07;;;;;;;7.00;3.00;;;;;;;16.99;64.12;99525.10;107392;1252;73155;-39
2023/08/23 02:42:34;;;;;;;9.50;3.70;;;;;;;16.86;64.33;99535.64;107472;1253;66309;-39
2023/08/23 02:45:03;;;;;;;4.70;3.30;;;;;;;16.74;64.74;99532.78;107467;1258;71487;-39
2023/08/23 02:47:32;;;;;;;6.80;3.60;;;;;;;16.73;65.01;99529.81;107543;1254;61706;-39
2023/08/23 02:49:59;;;;;;;4.70;2.90;;;;;;;16.74;64.85;99526.06;107450;1254;60049;-40
2023/08/23 02:52:27;;;;;;;6.60;3.10;;;;;;;16.71;64.92;99532.48;107468;1254;73093;-39
2023/08/23 02:54:55;;;;;;;5.70;3.40;;;;;;;16.63;65.10;99535.33;107605;1257;67542;-39
2023/08/23 02:57:22;;;;;;;8.00;3.70;;;;;;;16.55;65.62;99539.85;107511;1254;72707;-39
2023/08/23 02:59:50;;;;;;;5.90;3.00;;;;;;;16.53;65.97;99539.23;107444;1254;59624;-39
2023/08/23 03:02:18;;;;;;;7.10;3.40;;;;;;;16.56;66.17;99543.06;107473;1254;60015;-39
2023/08/23 03:04:48;;;;;;;5.70;3.40;;;;;;;16.59;66.26;99534.94;107584;1254;73500;-42
2023/08/23 03:07:16;;;;;;;4.60;3.10;;;;;;;16.67;66.10;99536.64;107347;1254;68043;-40
2023/08/23 03:09:44;;;;;;;4.60;2.60;;;;;;;16.72;66.02;99536.30;107480;1254;71414;-40
2023/08/23 03:12:12;;;;;;;6.20;3.50;;;;;;;16.70;65.93;99534.91;107373;1257;59526;-41
2023/08/23 03:14:39;;;;;;;6.50;3.00;;;;;;;16.68;66.07;99538.67;107393;1254;60305;-40
2023/08/23 03:17:07;;;;;;;4.10;3.00;;;;;;;16.67;66.21;99543.05;107392;1252;73069;-40
2023/08/23 03:19:36;;;;;;;5.80;3.10;;;;;;;16.63;66.12;99551.75;107275;1254;67621;-40
2023/08/23 03:22:04;;;;;;;7.90;4.20;;;;;;;16.54;66.40;99550.02;107392;1254;71404;-40
2023/08/23 03:24:32;;;;;;;4.60;3.30;;;;;;;16.50;66.65;99543.30;107365;1253;60115;-39
2023/08/23 03:26:59;;;;;;;5.10;3.00;;;;;;;16.51;66.86;99536.03;107516;1254;59138;-39
2023/08/23 03:29:28;;;;;;;5.90;3.10;;;;;;;16.57;66.83;99528.20;107478;1254;71826;-39
2023/08/23 03:31:56;;;;;;;4.20;2.90;;;;;;;16.67;66.72;99526.63;107314;1258;67557;-40
2023/08/23 03:34:23;;;;;;;4.30;3.10;;;;;;;16.73;66.33;99529.42;107336;1257;71604;-40
2023/08/23 03:36:51;;;;;;;7.10;3.00;;;;;;;16.73;66.23;99537.80;107501;1253;60406;-40
2023/08/23 03:39:18;;;;;;;6.10;3.40;;;;;;;16.67;66.38;99549.16;107427;1254;59542;-38
2023/08/23 03:41:47;;;;;;;5.20;3.40;;;;;;;16.60;66.74;99566.61;107500;1254;73076;-39
2023/08/23 03:44:14;;;;;;;5.10;3.50;;;;;;;16.56;67.49;99561.97;107489;1253;66294;-39
2023/08/23 03:46:42;;;;;;;5.70;3.30;;;;;;;16.56;67.65;99553.21;107359;1254;72842;-39
2023/08/23 03:49:10;;;;;;;5.80;3.70;;;;;;;16.64;67.27;99549.32;107286;1257;61658;-39
2023/08/23 03:51:37;;;;;;;8.70;3.00;;;;;;;16.73;66.80;99539.52;107530;1252;59607;-39
2023/08/23 03:54:05;;;;;;;6.50;2.90;;;;;;;16.78;66.73;99541.30;107490;1254;71839;-39
2023/08/23 03:56:32;;;;;;;7.40;3.10;;;;;;;16.83;66.52;99540.89;107408;1252;66563;-39
2023/08/23 03:59:00;;;;;;;5.80;3.40;;;;;;;16.87;66.37;99544.09;107486;1257;72703;-39
2023/08/23 04:01:29;;;;;;;5.30;3.10;;;;;;;16.92;66.37;99541.95;107472;1254;59717;-39
2023/08/23 04:03:57;;;;;;;11.20;3.90;;;;;;;16.96;66.12;99536.38;107503;1254;59560;-39
2023/08/23 04:06:25;;;;;;;6.60;3.60;;;;;;;17.02;66.07;99532.20;107426;1253;72051;-39
2023/08/23 04:08:53;;;;;;;7.40;3.40;;;;;;;17.10;66.08;99529.66;107285;1256;66469;-39
2023/08/23 04:11:20;;;;;;;5.30;3.20;;;;;;;17.22;66.10;99529.52;107301;1258;73280;-39
2023/08/23 04:13:48;;;;;;;5.60;3.30;;;;;;;17.34;66.29;99531.41;107233;1256;59660;-39
2023/08/23 04:16:15;;;;;;;5.20;3.20;;;;;;;17.44;66.34;99533.79;107312;1253;60034;-39
2023/08/23 04:18:43;;;;;;;5.20;3.60;;;;;;;17.53;66.36;99536.08;107326;1253;72987;-39
2023/08/23 04:21:11;;;;;;;9.50;3.40;;;;;;;17.61;66.58;99538.23;107396;1253;66630;-39
2023/08/23 04:23:39;;;;;;;4.70;2.80;;;;;;;17.69;66.77;99535.91;107393;1253;71451;-39
2023/08/23 04:26:07;;;;;;;6.50;2.80;;;;;;;17.77;66.37;99536.88;107390;1259;59637;-39
2023/08/23 04:28:37;;;;;;;;;;;;;;;17.86;65.27;99544.34;107427;1253;59506;-39
2023/08/23 04:31:05;;;;;;;7.20;2.80;;;;;;;17.93;64.43;99553.77;107369;1254;71726;-39
2023/08/23 04:33:41;;;;;;;5.70;2.70;;;;;;;17.98;63.84;99549.34;107407;1259;66554;-39
2023/08/23 04:36:09;;;;;;;4.80;2.50;;;;;;;18.03;63.33;99543.18;107292;1256;71426;-39
2023/08/23 04:38:37;;;;;;;4.70;2.80;;;;;;;18.09;63.11;99545.00;107203;1257;59644;-39
2023/08/23 04:41:05;;;;;;;43.00;4.80;;;;;;;18.16;62.96;99552.01;107160;1256;60049;-39
2023/08/23 04:43:33;;;;;;;7.00;2.80;;;;;;;18.22;63.27;99553.76;107110;1256;73022;-39
2023/08/23 04:46:04;;;;;;;4.70;2.20;;;;;;;18.33;63.47;99555.94;107180;1256;66433;-39
2023/08/23 04:48:32;;;;;;;4.00;2.10;;;;;;;18.44;62.22;99555.51;107265;1254;72723;-39
2023/08/23 04:51:00;;;;;;;4.50;2.60;;;;;;;18.49;61.63;99548.00;107246;1253;59595;-40
2023/08/23 04:53:27;;;;;;;5.90;2.70;;;;;;;18.54;61.79;99544.76;107225;1254;60050;-40
2023/08/23 04:55:57;;;;;;;5.90;2.30;;;;;;;18.62;61.20;99548.61;107462;1258;73024;-39
2023/08/23 04:58:29;;;;;;;3.40;2.30;;;;;;;18.69;61.17;99545.95;107376;1254;67865;-40
2023/08/23 05:00:59;;;;;;;5.40;2.50;;;;;;;18.76;60.38;99554.65;107324;1257;71418;-40
2023/08/23 05:03:26;;;;;;;4.30;2.40;;;;;;;18.80;60.38;99552.26;107457;1253;59556;-40
2023/08/23 05:05:54;;;;;;;6.80;2.60;;;;;;;18.78;60.28;99548.52;107305;1253;59549;-40
2023/08/23 05:08:22;;;;;;;5.90;2.30;;;;;;;18.85;60.60;99552.75;107306;1254;72964;-39
2023/08/23 05:10:52;;;;;;;4.80;2.60;;;;;;;18.89;60.42;99555.12;107397;1253;66355;-40
2023/08/23 05:13:20;;;;;;;5.70;2.40;;;;;;;18.96;60.40;99558.04;107356;1257;71432;-39
2023/08/23 05:15:52;;;;;;;5.80;2.40;;;;;;;19.02;60.24;99566.36;107398;1258;60561;-40
2023/08/23 05:18:20;;;;;;;4.70;2.30;;;;;;;19.08;59.81;99566.61;107437;1254;60437;-39
2023/08/23 05:20:59;;;;;;;3.70;2.10;;;;;;;19.13;59.70;99560.50;107345;1253;73865;-40
2023/08/23 05:23:27;;;;;;;4.30;2.30;;;;;;;19.22;59.83;99564.07;107328;1255;66625;-40
2023/08/23 05:25:56;;;;;;;4.90;2.40;;;;;;;19.30;59.79;99554.85;107292;1257;72667;-40
2023/08/23 05:28:23;;;;;;;3.50;2.20;;;;;;;19.35;59.22;99557.46;107347;1259;59590;-40
2023/08/23 05:30:51;;;;;;;4.90;2.30;;;;;;;19.39;59.35;99558.20;107427;1256;60323;-40
2023/08/23 05:33:22;;;;;;;6.20;2.50;;;;;;;19.43;59.49;99562.53;107242;1259;73406;-40
2023/08/23 05:35:50;;;;;;;3.90;2.20;;;;;;;19.50;59.09;99560.66;107286;1259;67611;-39
2023/08/23 05:38:20;;;;;;;3.70;1.90;;;;;;;19.56;58.68;99559.95;107347;1254;71442;-40
2023/08/23 05:40:48;;;;;;;6.30;2.10;;;;;;;19.60;58.55;99557.91;107289;1260;60501;-40
2023/08/23 05:43:15;;;;;;;4.60;2.10;;;;;;;19.66;58.64;99558.47;107313;1254;60310;-40
2023/08/23 05:45:44;;;;;;;4.70;1.90;;;;;;;19.75;58.29;99558.26;107325;1253;72534;-40
2023/08/23 05:48:13;;;;;;;3.20;1.90;;;;;;;19.84;57.99;99560.23;107312;1254;68024;-40
2023/08/23 05:50:41;;;;;;;5.50;2.10;;;;;;;19.92;57.61;99557.98;107306;1256;72715;-40
2023/08/23 05:53:18;;;;;;;4.40;2.30;;;;;;;20.01;57.56;99556.90;107268;1256;60321;-40
2023/08/23 05:55:49;;;;;;;4.60;2.30;;;;;;;20.10;56.83;99556.04;107250;1256;61010;-40
2023/08/23 05:58:21;;;;;;;3.60;1.90;;;;;;;20.16;56.05;99550.59;107308;1259;73953;-40
2023/08/23 06:00:50;;;;;;;4.60;2.20;;;;;;;20.20;55.80;99551.79;107191;1256;66768;-40
2023/08/23 06:03:17;;;;;;;5.10;1.80;;;;;;;20.24;56.01;99554.54;107196;1262;72460;-40
2023/08/23 06:05:45;;;;;;;5.00;2.00;;;;;;;20.28;56.13;99550.38;107222;1256;60488;-40
2023/08/23 06:08:13;;;;;;;3.40;1.70;;;;;;;20.32;56.10;99551.77;107197;1261;60361;-38
2023/08/23 06:10:41;;;;;;;3.70;2.00;;;;;;;20.37;55.58;99544.91;107213;1260;72617;-39
2023/08/23 06:13:08;;;;;;;4.80;2.50;;;;;;;20.41;55.53;99546.50;107240;1257;66647;-39
2023/08/23 06:15:36;;;;;;;5.90;2.30;;;;;;;20.45;55.42;99549.58;107252;1260;70911;-39
2023/08/23 06:18:04;;;;;;;5.10;1.90;;;;;;;20.47;55.13;99550.40;107279;1260;60457;-38
2023/08/23 06:20:32;;;;;;;4.10;2.00;;;;;;;20.50;55.44;99544.98;107340;1256;60590;-40
2023/08/23 06:23:00;;;;;;;4.70;2.30;;;;;;;20.54;55.26;99547.98;107282;1256;73895;-39
2023/08/23 06:25:27;;;;;;;5.50;2.10;;;;;;;20.56;55.19;99545.20;107356;1256;66309;-39
2023/08/23 06:27:55;;;;;;;3.60;2.20;;;;;;;20.58;55.34;99543.66;107272;1260;71867;-40
2023/08/23 06:30:23;;;;;;;6.40;2.10;;;;;;;20.62;55.29;99547.36;107271;1256;60451;-39
2023/08/23 06:32:50;;;;;;;4.80;2.10;;;;;;;20.68;54.94;99547.17;107305;1256;60446;-39
2023/08/23 06:35:20;;;;;;;3.70;2.10;;;;;;;20.74;54.60;99544.91;107227;1260;73922;-39
2023/08/23 06:37:48;;;;;;;6.30;2.50;;;;;;;20.82;54.35;99540.11;107267;1253;66316;-39
2023/08/23 06:40:16;;;;;;;4.80;2.30;;;;;;;20.94;53.91;99542.79;107265;1253;72725;-39
2023/08/23 06:42:44;;;;;;;8.50;2.20;;;;;;;21.04;53.53;99538.02;107394;1254;60290;-40
2023/08/23 06:45:12;;;;;;;3.70;1.90;;;;;;;21.15;52.81;99538.44;107389;1256;59663;-39
2023/08/23 06:47:40;;;;;;;4.20;1.60;;;;;;;21.25;51.93;99541.70;107291;1256;72288;-39
2023/08/23 06:50:09;;;;;;;4.70;2.10;;;;;;;21.31;50.51;99542.20;107317;1259;67598;-40
2023/08/23 06:52:41;;;;;;;3.80;1.90;;;;;;;21.32;50.75;99544.86;107471;1254;73142;-40
2023/08/23 06:55:09;;;;;;;4.20;2.40;;;;;;;21.34;50.95;99549.70;107378;1257;60304;-41
2023/08/23 06:57:37;;;;;;;5.40;2.40;;;;;;;21.37;50.63;99550.34;107272;1253;60329;-40
2023/08/23 07:00:05;;;;;;;4.30;2.10;;;;;;;21.38;50.42;99547.33;107116;1254;72419;-38
2023/08/23 07:02:33;;;;;;;4.40;2.50;;;;;;;21.39;50.58;99549.67;107131;1254;67704;-39
2023/08/23 07:05:01;;;;;;;5.80;2.50;;;;;;;21.42;51.19;99548.17;107248;1254;72752;-38
2023/08/23 07:07:28;;;;;;;4.70;2.20;;;;;;;21.49;50.70;99547.64;107267;1258;60330;-38
2023/08/23 07:09:56;;;;;;;4.40;2.30;;;;;;;21.61;50.57;99546.51;107263;1254;60316;-38
2023/08/23 07:12:23;;;;;;;10.90;2.60;;;;;;;21.71;50.37;99542.57;107347;1253;71860;-38
2023/08/23 07:14:51;;;;;;;11.30;2.50;;;;;;;21.91;50.48;99547.77;107612;1256;66793;-39
2023/08/23 07:17:19;;;;;;;4.70;2.20;;;;;;;22.08;49.49;99551.55;107513;1254;72890;-39
2023/08/23 07:19:48;;;;;;;14.50;2.40;;;;;;;22.22;48.91;99551.70;107521;1255;59346;-39
2023/08/23 07:22:15;;;;;;;4.20;2.20;;;;;;;22.31;48.11;99552.08;107576;1253;60431;-39
2023/08/23 07:24:43;;;;;;;5.40;2.40;;;;;;;22.40;48.18;99558.21;107620;1254;74273;-39
2023/08/23 07:27:10;;;;;;;2.80;1.90;;;;;;;22.49;47.51;99558.16;107493;1259;67596;-39
2023/08/23 07:29:38;;;;;;;4.00;2.10;;;;;;;22.55;47.11;99555.94;107592;1254;71410;-39
2023/08/23 07:32:06;;;;;;;3.90;1.90;;;;;;;22.61;47.56;99553.42;107439;1258;60408;-39
2023/08/23 07:34:34;;;;;;;3.90;2.00;;;;;;;22.70;47.80;99551.67;107595;1254;60611;-43
2023/08/23 07:37:01;;;;;;;4.70;2.20;;;;;;;22.78;47.19;99547.59;107476;1254;74302;-44
2023/08/23 07:39:29;;;;;;;4.80;2.10;;;;;;;22.82;46.30;99543.94;107364;1254;67602;-43
2023/08/23 07:41:56;;;;;;;6.40;2.60;;;;;;;22.82;46.65;99542.44;107486;1259;72661;-42
2023/08/23 07:44:24;;;;;;;3.50;1.80;;;;;;;22.85;47.22;99539.66;107336;1254;60385;-44
2023/08/23 07:46:53;;;;;;;2.80;1.80;;;;;;;22.85;46.96;99531.36;107396;1254;59972;-43
2023/08/23 07:49:20;;;;;;;4.30;1.90;;;;;;;22.95;46.51;99539.54;107406;1255;72611;-44
2023/08/23 07:51:48;;;;;;;3.80;1.70;;;;;;;23.02;46.78;99539.90;107358;1254;67563;-41
2023/08/23 07:54:16;;;;;;;4.30;1.80;;;;;;;23.07;46.90;99547.66;107358;1254;72707;-42
2023/08/23 07:56:43;;;;;;;3.60;1.80;;;;;;;23.10;46.80;99550.48;107363;1254;60219;-43
2023/08/23 07:59:11;;;;;;;4.30;1.90;;;;;;;23.10;46.86;99554.42;107356;1254;60290;-43
2023/08/23 08:01:39;;;;;;;2.90;1.70;;;;;;;23.13;46.90;99552.60;107375;1254;72647;-43
2023/08/23 08:04:06;;;;;;;8.00;2.00;;;;;;;23.22;47.20;99548.39;107371;1253;68418;-43
2023/08/23 08:06:34;;;;;;;7.70;2.00;;;;;;;23.39;47.36;99542.75;107465;1254;72726;-44
2023/08/23 08:09:02;;;;;;;4.80;2.00;;;;;;;23.57;46.94;99536.13;107366;1254;60390;-43
2023/08/23 08:11:29;;;;;;;4.30;2.10;;;;;;;23.68;46.03;99541.94;107408;1259;59260;-43
2023/08/23 08:13:57;;;;;;;5.00;2.00;;;;;;;23.75;45.93;99541.23;107462;1254;72575;-43
2023/08/23 08:16:25;;;;;;;6.10;1.90;;;;;;;23.86;45.43;99535.52;107462;1254;67542;-43
2023/08/23 08:18:53;;;;;;;6.20;1.90;;;;;;;23.96;45.09;99542.30;107378;1254;72795;-43
2023/08/23 08:21:20;;;;;;;3.90;1.90;;;;;;;24.05;44.43;99542.98;107358;1257;60404;-43
2023/08/23 08:23:48;;;;;;;5.10;1.80;;;;;;;24.12;44.42;99544.17;107308;1255;60302;-43
2023/08/23 08:26:16;;;;;;;5.10;1.80;;;;;;;24.19;42.98;99538.42;107249;1253;73901;-45
2023/08/23 08:28:45;;;;;;;5.40;1.80;;;;;;;24.26;42.84;99538.64;107314;1254;67955;-44
2023/08/23 08:31:13;;;;;;;4.10;2.00;;;;;;;24.28;43.10;99538.36;107307;1254;72667;-41
2023/08/23 08:33:42;;;;;;;3.60;1.70;;;;;;;24.31;42.97;99539.36;107338;1254;60325;-42
2023/08/23 08:36:09;;;;;;;5.30;1.90;;;;;;;24.37;42.93;99540.41;107389;1259;60488;-41
2023/08/23 08:38:39;;;;;;;3.80;1.50;;;;;;;24.47;43.11;99543.94;107336;1259;73862;-42
2023/08/23 08:41:08;;;;;;;4.30;2.00;;;;;;;24.58;42.80;99540.06;107397;1254;67544;-43
2023/08/23 08:43:36;;;;;;;3.80;1.80;;;;;;;24.69;42.08;99533.54;107390;1254;72691;-45
2023/08/23 08:46:06;;;;;;;3.00;1.70;;;;;;;24.78;42.11;99535.34;107419;1254;59674;-42
2023/08/23 08:48:34;;;;;;;3.40;1.70;;;;;;;24.84;40.35;99534.38;107386;1254;61032;-42
2023/08/23 08:51:02;;;;;;;4.00;2.00;;;;;;;24.83;40.17;99532.30;107374;1254;73883;-42
2023/08/23 08:53:31;;;;;;;3.80;1.80;;;;;;;24.80;40.16;99531.35;107512;1254;67583;-43
2023/08/23 08:55:59;;;;;;;3.90;1.50;;;;;;;24.82;40.11;99532.80;107307;1259;71793;-44
2023/08/23 08:58:26;;;;;;;3.30;1.70;;;;;;;24.86;39.41;99531.71;107261;1259;60319;-44
2023/08/23 09:00:54;;;;;;;4.30;1.80;;;;;;;24.90;39.79;99529.20;107365;1254;60322;-44
2023/08/23 09:03:22;;;;;;;3.50;1.60;;;;;;;24.99;40.83;99529.35;107241;1255;73821;-44
2023/08/23 09:05:49;;;;;;;2.60;1.70;;;;;;;25.08;39.70;99531.29;107210;1256;67571;-43
2023/08/23 09:08:17;;;;;;;4.00;1.60;;;;;;;25.10;38.99;99526.77;107139;1260;72665;-44
2023/08/23 09:10:45;;;;;;;4.60;1.60;;;;;;;25.10;39.07;99519.00;107259;1256;60653;-44
2023/08/23 09:13:12;;;;;;;4.10;1.40;;;;;;;25.17;39.53;99523.04;107203;1260;60496;-43
2023/08/23 09:15:40;;;;;;;5.60;1.50;;;;;;;25.28;38.74;99524.37;107286;1257;73842;-43
2023/08/23 09:18:08;;;;;;;4.00;1.80;;;;;;;25.35;39.10;99523.45;107192;1256;67957;-42
2023/08/23 09:20:36;;;;;;;2.70;1.40;;;;;;;25.39;39.17;99527.58;107186;1260;72726;-42
2023/08/23 09:23:04;;;;;;;3.00;1.70;;;;;;;25.37;39.16;99525.91;107226;1259;61041;-42
2023/08/23 09:25:31;;;;;;;2.80;1.40;;;;;;;25.34;39.16;99523.17;107240;1257;60304;-42
2023/08/23 09:27:59;;;;;;;4.80;1.40;;;;;;;25.35;38.45;99521.26;107244;1257;73867;-42
2023/08/23 09:30:26;;;;;;;4.90;1.80;;;;;;;25.36;38.82;99523.64;107190;1257;66282;-42
2023/08/23 09:32:57;;;;;;;3.50;1.50;;;;;;;25.38;39.51;99523.79;107063;1258;72662;-42
2023/08/23 09:35:25;;;;;;;3.50;1.30;;;;;;;25.36;38.90;99525.45;107307;1260;60365;-42
2023/08/23 09:37:53;;;;;;;2.70;1.50;;;;;;;25.35;39.07;99524.41;107260;1257;59684;-42
2023/08/23 09:40:23;;;;;;;2.60;1.30;;;;;;;25.40;39.26;99525.01;107248;1260;73888;-38
2023/08/23 09:42:51;;;;;;;4.40;1.60;;;;;;;25.55;39.43;99518.15;107258;1257;67596;-38
2023/08/23 09:45:26;;;;;;;4.20;1.40;;;;;;;25.79;39.15;99515.40;107271;1257;72703;-38
2023/08/23 09:47:55;;;;;;;3.90;1.70;;;;;;;25.96;38.46;99517.60;107273;1257;60486;-38
2023/08/23 09:50:23;;;;;;;2.60;1.50;;;;;;;26.03;37.99;99517.19;107329;1259;60589;-38
2023/08/23 09:52:56;;;;;;;5.70;1.80;;;;;;;26.05;37.67;99515.09;107362;1260;74154;-38
2023/08/23 09:55:24;;;;;;;2.20;1.50;;;;;;;26.15;37.78;99505.39;107281;1258;67033;-38
2023/08/23 09:57:53;;;;;;;10.20;2.30;;;;;;;26.35;37.99;99506.38;107077;1257;71767;-38
2023/08/23 10:00:21;;;;;;;4.50;1.50;;;;;;;26.61;37.82;99504.86;107304;1256;60831;-38
2023/08/23 10:02:49;;;;;;;4.10;1.80;;;;;;;26.85;35.94;99501.40;107320;1254;60400;-38
2023/08/23 10:05:17;;;;;;;3.20;1.70;;;;;;;26.98;35.98;99498.89;107468;1260;74171;-38
2023/08/23 10:07:45;;;;;;;3.20;1.50;;;;;;;27.05;35.39;99499.21;107310;1258;66434;-38
2023/08/23 10:10:13;;;;;;;4.50;1.90;;;;;;;27.12;35.87;99489.36;107395;1259;73031;-38
2023/08/23 10:12:45;;;;;;;3.20;1.50;;;;;;;27.23;35.79;99488.67;107355;1260;60428;-38
2023/08/23 10:15:16;;;;;;;2.60;1.50;;;;;;;27.37;35.32;99491.06;107451;1254;60460;-38
2023/08/23 10:17:45;;;;;;;5.90;1.70;;;;;;;27.48;34.51;99491.86;107403;1254;73835;-38
2023/08/23 10:20:22;;;;;;;3.90;1.80;;;;;;;27.63;34.45;99479.92;107207;1260;67359;-37
2023/08/23 10:22:53;;;;;;;2.40;1.50;;;;;;;27.87;34.43;99483.93;107375;1260;71377;-37
2023/08/23 10:25:21;;;;;;;3.60;1.70;;;;;;;28.00;33.18;99481.11;107644;1258;60494;-37
2023/08/23 10:27:52;;;;;;;2.70;1.50;;;;;;;28.02;33.54;99478.23;107372;1254;59138;-39
2023/08/23 10:30:26;;;;;;;4.70;2.00;;;;;;;28.09;34.15;99472.95;107409;1257;74308;-38
2023/08/23 10:32:55;;;;;;;4.60;1.70;;;;;;;28.22;33.87;99473.27;107441;1257;67570;-38
2023/08/23 10:35:29;;;;;;;5.90;1.70;;;;;;;28.28;33.27;99468.98;107415;1258;72697;-38
2023/08/23 10:37:57;;;;;;;5.10;1.50;;;;;;;28.30;32.55;99469.36;107420;1257;60158;-38
2023/08/23 10:40:28;;;;;;;7.90;2.10;;;;;;;28.34;33.31;99464.34;107537;1257;60319;-39
2023/08/23 10:42:56;;;;;;;3.80;1.80;;;;;;;28.42;32.79;99462.25;107542;1254;73865;-38
2023/08/23 10:45:24;;;;;;;3.20;1.60;;;;;;;28.37;33.24;99456.84;107494;1255;66359;-39
2023/08/23 10:47:52;;;;;;;3.60;1.80;;;;;;;28.26;33.82;99459.86;107456;1257;72764;-38
2023/08/23 10:50:20;;;;;;;8.40;1.80;;;;;;;28.08;34.06;99459.66;107435;1254;60632;-38
2023/08/23 10:52:50;;;;;;;8.20;2.20;;;;;;;27.89;34.08;99457.39;107393;1255;60145;-38
2023/08/23 10:55:18;;;;;;;4.00;2.00;;;;;;;27.70;33.63;99457.23;107436;1252;72688;-38
2023/08/23 10:57:46;;;;;;;3.30;1.90;;;;;;;27.58;33.86;99458.59;107552;1258;67995;-38
2023/08/23 11:00:15;;;;;;;2.80;1.70;;;;;;;27.62;34.05;99454.98;107437;1253;72693;-38
2023/08/23 11:02:42;;;;;;;6.00;1.80;;;;;;;27.87;33.78;99448.90;107537;1259;60695;-39
2023/08/23 11:05:10;;;;;;;4.70;2.00;;;;;;;28.26;33.72;99447.29;107449;1254;60368;-38
2023/08/23 11:07:38;;;;;;;3.70;1.70;;;;;;;28.67;33.26;99444.98;107402;1252;73876;-39
2023/08/23 11:10:08;;;;;;;4.40;1.90;;;;;;;29.10;31.82;99444.29;107491;1255;68075;-39
2023/08/23 11:12:38;;;;;;;4.90;1.90;;;;;;;29.42;32.14;99442.23;107500;1254;72776;-39
2023/08/23 11:15:07;;;;;;;2.70;1.40;;;;;;;29.68;31.69;99431.04;107484;1254;60428;-38
2023/08/23 11:17:34;;;;;;;5.50;2.00;;;;;;;29.83;30.52;99437.54;107559;1254;60337;-39
2023/08/23 11:20:03;;;;;;;3.40;1.60;;;;;;;29.88;30.56;99430.80;107696;1257;73882;-39
2023/08/23 11:22:30;;;;;;;5.40;1.70;;;;;;;29.97;30.73;99427.71;107383;1260;67458;-39
2023/08/23 11:24:59;;;;;;;3.00;1.80;;;;;;;30.18;30.07;99429.76;107538;1254;71418;-38
2023/08/23 11:27:26;;;;;;;5.00;2.00;;;;;;;30.37;30.09;99419.67;107510;1253;60417;-39
2023/08/23 11:29:58;;;;;;;3.50;1.80;;;;;;;30.42;29.91;99424.73;107517;1253;60300;-39
2023/08/23 11:32:26;;;;;;;4.60;1.70;;;;;;;30.41;30.01;99425.20;107503;1257;74287;-39